createdAt,value
2018-01-01T00:02:17.246Z,11.05
2018-01-01T00:04:52.025Z,11.04
2018-01-01T00:07:26.925Z,11.05
2018-01-01T00:10:01.727Z,11.00
2018-01-01T00:12:36.486Z,11.02
2018-01-01T00:15:11.303Z,11.00
2018-01-01T00:17:46.070Z,10.99
2018-01-01T00:20:21.031Z,10.98
2018-01-01T00:22:55.994Z,10.97
2018-01-01T00:25:30.865Z,10.96
2018-01-01T00:28:05.746Z,10.96
2018-01-01T00:30:40.546Z,10.98
2018-01-01T00:33:15.530Z,10.98
2018-01-01T00:35:50.373Z,10.97
2018-01-01T00:38:25.281Z,10.96
2018-01-01T00:41:00.039Z,10.97
2018-01-01T00:43:34.641Z,10.95
2018-01-01T00:46:09.288Z,10.98
2018-01-01T00:48:44.046Z,10.99
2018-01-01T00:51:18.851Z,10.98
2018-01-01T00:53:53.661Z,10.97
2018-01-01T00:56:28.525Z,10.94
2018-01-01T00:59:03.753Z,10.92
2018-01-01T01:01:38.558Z,10.88
2018-01-01T01:04:13.407Z,10.85
2018-01-01T01:06:48.327Z,10.85
2018-01-01T01:09:23.100Z,10.79
2018-01-01T01:11:57.785Z,10.78
2018-01-01T01:14:32.740Z,10.77
2018-01-01T01:17:07.665Z,10.74
2018-01-01T01:19:42.529Z,10.73
2018-01-01T01:22:17.685Z,10.71
2018-01-01T01:24:52.554Z,10.70
2018-01-01T01:27:27.359Z,10.68
2018-01-01T01:30:02.057Z,10.63
2018-01-01T01:32:36.921Z,10.61
2018-01-01T01:35:11.774Z,10.60
2018-01-01T01:37:46.526Z,10.58
2018-01-01T01:40:21.285Z,10.62
2018-01-01T01:42:56.156Z,10.63
2018-01-01T01:45:31.038Z,10.60
2018-01-01T01:48:05.903Z,10.56
2018-01-01T01:50:40.880Z,10.53
2018-01-01T01:53:15.627Z,10.54
2018-01-01T01:55:50.429Z,10.56
2018-01-01T01:58:25.183Z,10.55
2018-01-01T02:00:59.991Z,10.54
2018-01-01T02:03:34.622Z,10.54
2018-01-01T02:06:09.328Z,10.48
2018-01-01T02:08:44.089Z,10.44
2018-01-01T02:11:18.784Z,10.43
2018-01-01T02:13:53.835Z,10.43
2018-01-01T02:16:28.582Z,10.40
2018-01-01T02:19:03.350Z,10.37
2018-01-01T02:21:37.817Z,10.30
2018-01-01T02:24:12.878Z,10.28
2018-01-01T02:26:47.614Z,10.24
2018-01-01T02:29:22.402Z,10.23
2018-01-01T02:31:56.890Z,10.17
2018-01-01T02:34:31.522Z,10.13
2018-01-01T02:37:06.526Z,10.11
2018-01-01T02:39:41.028Z,10.11
2018-01-01T02:42:16.018Z,10.05
2018-01-01T02:44:50.683Z,10.13
2018-01-01T02:47:25.225Z,10.15
2018-01-01T02:50:00.454Z,10.13
2018-01-01T02:52:35.188Z,10.13
2018-01-01T02:55:10.133Z,10.13
2018-01-01T02:57:45.071Z,10.13
2018-01-01T03:00:19.734Z,10.13
2018-01-01T03:02:54.530Z,10.10
2018-01-01T03:05:29.326Z,10.09
2018-01-01T03:08:04.043Z,10.08
2018-01-01T03:10:38.715Z,10.09
2018-01-01T03:13:13.399Z,10.11
2018-01-01T03:15:48.264Z,10.09
2018-01-01T03:18:23.070Z,10.07
2018-01-01T03:20:57.913Z,10.06
2018-01-01T03:23:32.325Z,10.09
2018-01-01T03:26:07.354Z,10.07
2018-01-01T03:28:42.115Z,10.04
2018-01-01T03:31:16.911Z,10.04
2018-01-01T03:33:51.681Z,10.05
2018-01-01T03:36:26.509Z,9.98
2018-01-01T03:39:01.302Z,9.96
2018-01-01T03:41:36.051Z,9.90
2018-01-01T03:44:10.977Z,9.91
2018-01-01T03:46:45.921Z,9.88
2018-01-01T03:49:20.806Z,9.87
2018-01-01T03:51:55.797Z,9.85
2018-01-01T03:54:30.353Z,9.80
2018-01-01T03:57:05.110Z,9.76
2018-01-01T03:59:40.061Z,9.75
2018-01-01T04:02:14.821Z,9.80
2018-01-01T04:04:50.226Z,9.74
2018-01-01T04:07:24.321Z,9.75
2018-01-01T04:09:59.357Z,9.76
2018-01-01T04:12:34.237Z,9.63
2018-01-01T04:15:08.943Z,9.57
2018-01-01T04:17:43.814Z,9.54
2018-01-01T04:20:18.628Z,9.50
2018-01-01T04:22:53.645Z,9.47
2018-01-01T04:25:28.333Z,9.44
2018-01-01T04:28:03.228Z,9.40
2018-01-01T04:30:37.734Z,9.41
2018-01-01T04:33:12.689Z,9.38
2018-01-01T04:35:47.506Z,9.36
2018-01-01T04:38:22.169Z,9.29
2018-01-01T04:40:57.065Z,9.10
2018-01-01T04:43:31.723Z,9.04
2018-01-01T04:46:06.680Z,8.93
2018-01-01T04:48:41.434Z,8.88
2018-01-01T04:51:16.131Z,8.83
2018-01-01T04:53:50.927Z,8.81
2018-01-01T04:56:25.818Z,8.80
2018-01-01T04:59:00.455Z,8.84
2018-01-01T05:01:35.115Z,8.87
2018-01-01T05:04:10.137Z,8.89
2018-01-01T05:06:44.861Z,8.90
2018-01-01T05:09:19.735Z,8.94
2018-01-01T05:11:54.404Z,9.00
2018-01-01T05:14:29.101Z,9.01
2018-01-01T05:17:03.882Z,9.00
2018-01-01T05:19:38.682Z,9.03
2018-01-01T05:22:13.762Z,9.00
2018-01-01T05:24:48.942Z,8.97
2018-01-01T05:27:23.515Z,8.91
2018-01-01T05:29:58.630Z,8.77
2018-01-01T05:32:33.393Z,8.70
2018-01-01T05:35:08.111Z,8.62
2018-01-01T05:37:43.051Z,8.57
2018-01-01T05:40:18.385Z,8.57
2018-01-01T05:42:53.586Z,8.53
2018-01-01T05:45:28.777Z,8.48
2018-01-01T05:48:03.714Z,8.44
2018-01-01T05:50:38.508Z,8.38
2018-01-01T05:53:13.507Z,8.32
2018-01-01T05:55:48.164Z,8.32
2018-01-01T05:58:23.178Z,8.33
2018-01-01T06:00:57.842Z,8.32
2018-01-01T06:03:32.528Z,8.30
2018-01-01T06:06:07.019Z,8.29
2018-01-01T06:08:41.866Z,8.25
2018-01-01T06:11:16.780Z,8.29
2018-01-01T06:13:51.947Z,8.25
2018-01-01T06:16:26.837Z,8.18
2018-01-01T06:19:01.753Z,8.10
2018-01-01T06:21:36.687Z,8.04
2018-01-01T06:24:11.567Z,8.00
2018-01-01T06:26:46.448Z,7.96
2018-01-01T06:29:21.343Z,7.93
2018-01-01T06:31:56.187Z,7.89
2018-01-01T06:34:31.099Z,7.89
2018-01-01T06:37:05.790Z,7.92
2018-01-01T06:39:40.483Z,7.93
2018-01-01T06:42:15.181Z,7.95
2018-01-01T06:44:49.934Z,7.93
2018-01-01T06:47:24.670Z,7.95
2018-01-01T06:49:59.342Z,7.96
2018-01-01T06:52:34.334Z,8.00
2018-01-01T06:55:09.117Z,8.02
2018-01-01T06:57:43.767Z,8.02
2018-01-01T07:00:18.483Z,8.00
2018-01-01T07:02:53.371Z,8.07
2018-01-01T07:05:28.039Z,8.02
2018-01-01T07:08:02.922Z,8.02
2018-01-01T07:10:37.770Z,8.02
2018-01-01T07:13:12.616Z,8.01
2018-01-01T07:15:47.575Z,7.96
2018-01-01T07:18:22.378Z,7.97
2018-01-01T07:20:57.154Z,8.00
2018-01-01T07:23:31.829Z,8.00
2018-01-01T07:26:06.574Z,8.03
2018-01-01T07:28:41.493Z,8.06
2018-01-01T07:31:16.339Z,8.03
2018-01-01T07:33:50.958Z,8.04
2018-01-01T07:36:25.356Z,8.05
2018-01-01T07:39:00.538Z,8.02
2018-01-01T07:41:35.331Z,7.95
2018-01-01T07:44:10.301Z,7.97
2018-01-01T07:46:45.136Z,7.98
2018-01-01T07:49:20.135Z,7.98
2018-01-01T07:51:55.057Z,7.97
2018-01-01T07:54:30.022Z,8.00
2018-01-01T07:57:04.821Z,8.01
2018-01-01T07:59:39.857Z,8.01
2018-01-01T08:02:14.814Z,8.01
2018-01-01T08:04:49.502Z,7.96
2018-01-01T08:07:24.769Z,7.92
2018-01-01T08:09:59.407Z,7.89
2018-01-01T08:12:34.328Z,7.88
2018-01-01T08:15:09.375Z,7.90
2018-01-01T08:17:45.903Z,7.89
2018-01-01T08:20:21.072Z,7.87
2018-01-01T08:22:55.994Z,7.87
2018-01-01T08:25:31.245Z,7.94
2018-01-01T08:28:06.022Z,7.92
2018-01-01T08:30:40.258Z,7.93
2018-01-01T08:33:15.020Z,7.98
2018-01-01T08:35:49.801Z,7.89
2018-01-01T08:38:25.063Z,7.95
2018-01-01T08:41:00.048Z,7.95
2018-01-01T08:43:35.062Z,7.90
2018-01-01T08:46:09.797Z,7.90
2018-01-01T08:48:44.413Z,7.88
2018-01-01T08:51:19.722Z,7.88
2018-01-01T08:53:54.532Z,7.88
2018-01-01T08:56:28.896Z,7.94
2018-01-01T08:59:03.859Z,7.93
2018-01-01T09:01:38.898Z,7.91
2018-01-01T09:04:13.514Z,7.88
2018-01-01T09:06:48.375Z,7.86
2018-01-01T09:09:23.886Z,7.88
2018-01-01T09:11:59.126Z,7.78
2018-01-01T09:14:34.162Z,7.80
2018-01-01T09:17:08.940Z,7.75
2018-01-01T09:19:43.658Z,7.68
2018-01-01T09:22:18.419Z,7.68
2018-01-01T09:24:53.501Z,7.69
2018-01-01T09:27:28.383Z,7.70
2018-01-01T09:30:03.574Z,7.71
2018-01-01T09:32:38.319Z,7.75
2018-01-01T09:35:13.202Z,7.77
2018-01-01T09:37:48.204Z,7.81
2018-01-01T09:40:22.709Z,7.84
2018-01-01T09:42:57.930Z,7.93
2018-01-01T09:45:32.532Z,8.02
2018-01-01T09:48:07.294Z,8.13
2018-01-01T09:50:42.313Z,8.23
2018-01-01T09:53:17.576Z,8.33
2018-01-01T09:55:52.278Z,8.42
2018-01-01T09:58:27.347Z,8.36
2018-01-01T10:01:02.239Z,8.36
2018-01-01T10:03:37.207Z,8.33
2018-01-01T10:06:11.992Z,8.40
2018-01-01T10:08:46.672Z,8.47
2018-01-01T10:11:21.957Z,8.63
2018-01-01T10:13:56.439Z,8.82
2018-01-01T10:16:31.436Z,9.05
2018-01-01T10:19:06.103Z,9.26
2018-01-01T10:21:40.887Z,9.40
2018-01-01T10:24:15.987Z,9.49
2018-01-01T10:26:50.666Z,9.53
2018-01-01T10:29:25.389Z,9.64
2018-01-01T10:32:00.330Z,9.77
2018-01-01T10:34:35.392Z,9.95
2018-01-01T10:37:10.308Z,10.02
2018-01-01T10:39:44.715Z,10.07
2018-01-01T10:42:19.546Z,10.13
2018-01-01T10:44:54.655Z,10.20
2018-01-01T10:47:29.738Z,10.22
2018-01-01T10:50:04.671Z,10.28
2018-01-01T10:52:39.326Z,10.30
2018-01-01T10:55:13.752Z,10.34
2018-01-01T10:57:48.961Z,10.45
2018-01-01T11:00:23.586Z,10.59
2018-01-01T11:02:58.628Z,10.78
2018-01-01T11:05:33.444Z,10.84
2018-01-01T11:08:08.405Z,10.72
2018-01-01T11:10:43.209Z,10.54
2018-01-01T11:13:18.123Z,10.48
2018-01-01T11:15:52.955Z,10.55
2018-01-01T11:18:28.039Z,10.62
2018-01-01T11:21:02.975Z,10.59
2018-01-01T11:23:37.883Z,10.60
2018-01-01T11:26:12.686Z,10.49
2018-01-01T11:28:47.466Z,10.27
2018-01-01T11:31:22.392Z,10.17
2018-01-01T11:33:57.199Z,10.21
2018-01-01T11:36:32.134Z,10.25
2018-01-01T11:39:07.146Z,10.17
2018-01-01T11:41:42.026Z,10.05
2018-01-01T11:44:17.350Z,10.02
2018-01-01T11:46:52.254Z,10.03
2018-01-01T11:49:27.366Z,10.02
2018-01-01T11:52:01.871Z,9.99
2018-01-01T11:54:37.062Z,9.93
2018-01-01T11:57:11.552Z,9.89
2018-01-01T11:59:45.967Z,9.84
2018-01-01T12:02:20.999Z,9.70
2018-01-01T12:04:55.575Z,9.54
2018-01-01T12:07:30.489Z,9.47
2018-01-01T12:10:05.540Z,9.44
2018-01-01T12:12:40.485Z,9.43
2018-01-01T12:15:15.818Z,9.43
2018-01-01T12:17:50.645Z,9.44
2018-01-01T12:20:25.814Z,9.38
2018-01-01T12:23:00.946Z,9.37
2018-01-01T12:25:35.837Z,9.39
2018-01-01T12:28:10.630Z,9.51
2018-01-01T12:30:45.753Z,9.61
2018-01-01T12:33:20.575Z,9.72
2018-01-01T12:35:55.530Z,9.70
2018-01-01T12:38:30.702Z,9.69
2018-01-01T12:41:05.467Z,9.59
2018-01-01T12:43:40.322Z,9.52
2018-01-01T12:46:15.222Z,9.47
2018-01-01T12:48:50.035Z,9.38
2018-01-01T12:51:24.982Z,9.29
2018-01-01T12:53:59.938Z,9.22
2018-01-01T12:56:34.947Z,9.21
2018-01-01T12:59:09.682Z,9.29
2018-01-01T13:01:44.338Z,9.38
2018-01-01T13:04:19.267Z,9.53
2018-01-01T13:06:54.202Z,9.56
2018-01-01T13:09:29.184Z,9.45
2018-01-01T13:12:04.003Z,9.42
2018-01-01T13:14:38.429Z,9.35
2018-01-01T13:17:13.305Z,9.34
2018-01-01T13:19:47.983Z,9.33
2018-01-01T13:22:22.970Z,9.32
2018-01-01T13:24:57.287Z,9.35
2018-01-01T13:27:32.421Z,9.37
2018-01-01T13:30:07.385Z,9.31
2018-01-01T13:32:42.183Z,9.33
2018-01-01T13:35:16.938Z,9.36
2018-01-01T13:37:51.811Z,9.39
2018-01-01T13:40:26.990Z,9.47
2018-01-01T13:43:02.054Z,9.59
2018-01-01T13:45:36.845Z,9.62
2018-01-01T13:48:11.611Z,9.66
2018-01-01T13:50:46.428Z,9.69
2018-01-01T13:53:21.035Z,9.69
2018-01-01T13:55:55.926Z,9.68
2018-01-01T13:58:30.748Z,9.63
2018-01-01T14:01:05.517Z,9.58
2018-01-01T14:03:40.307Z,9.47
2018-01-01T14:06:14.815Z,9.43
2018-01-01T14:08:49.846Z,9.41
2018-01-01T14:11:24.469Z,9.40
2018-01-01T14:13:59.990Z,9.36
2018-01-01T14:16:34.747Z,9.35
2018-01-01T14:19:09.506Z,9.26
2018-01-01T14:21:43.970Z,9.29
2018-01-01T14:24:19.042Z,9.32
2018-01-01T14:26:53.815Z,9.17
2018-01-01T14:29:28.815Z,9.18
2018-01-01T14:32:03.739Z,9.22
2018-01-01T14:34:39.031Z,9.23
2018-01-01T14:37:14.104Z,9.22
2018-01-01T14:39:48.610Z,9.22
2018-01-01T14:42:23.479Z,9.14
2018-01-01T14:44:58.806Z,9.08
2018-01-01T14:47:33.843Z,9.01
2018-01-01T14:50:09.063Z,8.98
2018-01-01T14:52:43.824Z,9.04
2018-01-01T14:55:18.824Z,9.02
2018-01-01T14:57:53.680Z,9.03
2018-01-01T15:00:28.355Z,9.02
2018-01-01T15:03:03.355Z,9.02
2018-01-01T15:05:38.278Z,8.97
2018-01-01T15:08:13.182Z,8.95
2018-01-01T15:10:47.981Z,8.92
2018-01-01T15:13:22.798Z,8.88
2018-01-01T15:15:57.997Z,8.78
2018-01-01T15:18:32.764Z,8.69
2018-01-01T15:21:07.718Z,8.65
2018-01-01T15:23:42.548Z,8.64
2018-01-01T15:26:17.638Z,8.62
2018-01-01T15:28:52.866Z,8.50
2018-01-01T15:31:27.698Z,8.35
2018-01-01T15:34:02.817Z,8.26
2018-01-01T15:36:37.519Z,8.23
2018-01-01T15:39:12.805Z,8.24
2018-01-01T15:41:47.579Z,8.26
2018-01-01T15:44:22.857Z,8.27
2018-01-01T15:46:58.329Z,8.25
2018-01-01T15:49:33.347Z,8.28
2018-01-01T15:52:08.425Z,8.22
2018-01-01T15:54:43.606Z,8.14
2018-01-01T15:57:18.465Z,8.12
2018-01-01T15:59:53.359Z,8.15
2018-01-01T16:02:28.330Z,8.15
2018-01-01T16:05:02.937Z,8.33
2018-01-01T16:07:37.962Z,8.54
2018-01-01T16:10:12.839Z,8.69
2018-01-01T16:12:47.767Z,8.78
2018-01-01T16:15:22.554Z,8.64
2018-01-01T16:17:57.317Z,8.71
2018-01-01T16:20:31.939Z,8.80
2018-01-01T16:23:06.808Z,8.80
2018-01-01T16:25:41.799Z,8.78
2018-01-01T16:28:16.549Z,8.76
2018-01-01T16:30:51.358Z,8.60
2018-01-01T16:33:26.257Z,8.50
2018-01-01T16:36:00.878Z,8.48
2018-01-01T16:38:36.074Z,8.33
2018-01-01T16:41:10.961Z,8.34
2018-01-01T16:43:46.046Z,8.41
2018-01-01T16:46:20.778Z,8.20
2018-01-01T16:48:55.843Z,8.02
2018-01-01T16:51:30.811Z,7.93
2018-01-01T16:54:05.558Z,7.81
2018-01-01T16:56:40.682Z,7.72
2018-01-01T16:59:15.650Z,7.69
2018-01-01T17:01:50.398Z,7.63
2018-01-01T17:04:25.298Z,7.52
2018-01-01T17:07:00.746Z,7.49
2018-01-01T17:09:35.739Z,7.42
2018-01-01T17:12:10.454Z,7.35
2018-01-01T17:14:45.234Z,7.29
2018-01-01T17:17:20.539Z,7.30
2018-01-01T17:19:55.403Z,7.28
2018-01-01T17:22:30.474Z,7.30
2018-01-01T17:25:05.391Z,7.28
2018-01-01T17:27:40.259Z,7.25
2018-01-01T17:30:15.126Z,7.10
2018-01-01T17:32:49.822Z,7.26
2018-01-01T17:35:24.590Z,7.26
2018-01-01T17:37:59.514Z,7.28
2018-01-01T17:40:34.080Z,7.26
2018-01-01T17:43:09.142Z,7.26
2018-01-01T17:45:43.915Z,7.28
2018-01-01T17:48:18.486Z,7.27
2018-01-01T17:50:53.577Z,7.32
2018-01-01T17:53:28.634Z,7.39
2018-01-01T17:56:03.609Z,7.44
2018-01-01T17:58:38.480Z,7.43
2018-01-01T18:01:12.991Z,7.44
2018-01-01T18:03:47.258Z,7.44
2018-01-01T18:06:22.181Z,7.45
2018-01-01T18:08:56.774Z,7.44
2018-01-01T18:11:32.131Z,7.43
2018-01-01T18:14:07.089Z,7.47
2018-01-01T18:16:42.222Z,7.55
2018-01-01T18:19:16.607Z,7.61
2018-01-01T18:21:51.370Z,7.62
2018-01-01T18:24:26.637Z,7.63
2018-01-01T18:27:02.054Z,7.66
2018-01-01T18:29:36.457Z,7.69
2018-01-01T18:32:11.379Z,7.69
2018-01-01T18:34:46.382Z,7.71
2018-01-01T18:37:21.597Z,7.72
2018-01-01T18:39:56.488Z,7.80
2018-01-01T18:42:31.263Z,7.85
2018-01-01T18:45:06.545Z,7.94
2018-01-01T18:47:41.514Z,7.92
2018-01-01T18:50:16.339Z,7.96
2018-01-01T18:52:51.279Z,7.98
2018-01-01T18:55:26.138Z,7.97
2018-01-01T18:58:01.301Z,7.97
2018-01-01T19:00:36.595Z,7.90
2018-01-01T19:03:11.942Z,7.84
2018-01-01T19:05:46.961Z,7.84
2018-01-01T19:08:22.098Z,7.75
2018-01-01T19:10:56.697Z,7.77
2018-01-01T19:13:32.066Z,7.76
2018-01-01T19:16:06.827Z,7.74
2018-01-01T19:18:41.263Z,7.68
2018-01-01T19:21:15.855Z,7.64
2018-01-01T19:23:51.194Z,7.59
2018-01-01T19:26:26.194Z,7.54
2018-01-01T19:29:01.271Z,7.52
2018-01-01T19:31:35.631Z,7.50
2018-01-01T19:34:10.597Z,7.48
2018-01-01T19:36:45.559Z,7.56
2018-01-01T19:39:20.704Z,7.50
2018-01-01T19:41:55.914Z,7.50
2018-01-01T19:44:30.862Z,7.45
2018-01-01T19:47:05.615Z,7.45
2018-01-01T19:49:40.825Z,7.41
2018-01-01T19:52:15.986Z,7.38
2018-01-01T19:54:51.169Z,7.40
2018-01-01T19:57:26.034Z,7.41
2018-01-01T20:00:00.990Z,7.32
2018-01-01T20:02:35.921Z,7.30
2018-01-01T20:05:10.937Z,7.26
2018-01-01T20:07:45.979Z,7.27
2018-01-01T20:10:21.000Z,7.26
2018-01-01T20:12:56.351Z,7.28
2018-01-01T20:15:31.503Z,7.24
2018-01-01T20:18:05.877Z,7.25
2018-01-01T20:20:40.382Z,7.26
2018-01-01T20:23:15.038Z,7.30
2018-01-01T20:25:50.223Z,7.33
2018-01-01T20:28:26.067Z,7.37
2018-01-01T20:31:01.230Z,7.38
2018-01-01T20:33:36.310Z,7.44
2018-01-01T20:36:10.677Z,7.53
2018-01-01T20:38:46.008Z,7.59
2018-01-01T20:41:20.542Z,7.65
2018-01-01T20:43:55.230Z,7.72
2018-01-01T20:46:30.517Z,7.66
2018-01-01T20:49:05.463Z,7.62
2018-01-01T20:51:40.076Z,7.61
2018-01-01T20:54:15.070Z,7.65
2018-01-01T20:56:50.139Z,7.68
2018-01-01T20:59:24.870Z,7.70
2018-01-01T21:01:59.790Z,7.76
2018-01-01T21:04:34.398Z,7.77
2018-01-01T21:07:09.649Z,7.75
2018-01-01T21:09:44.426Z,7.68
2018-01-01T21:12:19.213Z,7.61
2018-01-01T21:14:54.380Z,7.56
2018-01-01T21:17:29.065Z,7.45
2018-01-01T21:20:03.856Z,7.43
2018-01-01T21:22:38.631Z,7.45
2018-01-01T21:25:13.991Z,7.40
2018-01-01T21:27:48.923Z,7.37
2018-01-01T21:30:24.187Z,7.40
2018-01-01T21:32:58.865Z,7.55
2018-01-01T21:35:34.217Z,7.62
2018-01-01T21:38:09.226Z,7.64
2018-01-01T21:40:44.174Z,7.66
2018-01-01T21:43:19.061Z,7.71
2018-01-01T21:45:54.299Z,7.76
2018-01-01T21:48:28.706Z,7.76
2018-01-01T21:51:03.862Z,7.62
2018-01-01T21:53:38.249Z,7.64
2018-01-01T21:56:13.316Z,7.70
2018-01-01T21:58:48.644Z,7.76
2018-01-01T22:01:23.498Z,7.80
2018-01-01T22:03:58.418Z,7.83
2018-01-01T22:06:33.405Z,7.80
2018-01-01T22:09:08.270Z,7.75
2018-01-01T22:11:42.862Z,7.73
2018-01-01T22:14:17.822Z,7.73
2018-01-01T22:16:52.723Z,7.73
2018-01-01T22:19:27.503Z,7.75
2018-01-01T22:22:02.251Z,7.78
2018-01-01T22:24:37.233Z,7.82
2018-01-01T22:27:12.398Z,7.87
2018-01-01T22:29:47.165Z,7.90
2018-01-01T22:32:22.062Z,7.94
2018-01-01T22:34:56.992Z,7.96
2018-01-01T22:37:32.228Z,7.97
2018-01-01T22:40:07.057Z,7.98
2018-01-01T22:42:42.406Z,7.99
2018-01-01T22:45:17.388Z,7.94
2018-01-01T22:47:52.330Z,7.98
2018-01-01T22:50:27.686Z,7.99
2018-01-01T22:53:02.946Z,7.99
2018-01-01T22:55:38.055Z,8.00
2018-01-01T22:58:13.231Z,7.99
2018-01-01T23:00:48.083Z,8.00
2018-01-01T23:03:23.133Z,7.94
2018-01-01T23:05:57.843Z,7.89
2018-01-01T23:08:32.287Z,7.87
2018-01-01T23:11:07.483Z,7.86
2018-01-01T23:13:42.314Z,7.86
2018-01-01T23:16:17.131Z,7.83
2018-01-01T23:18:52.199Z,7.80
2018-01-01T23:21:26.836Z,7.77
2018-01-01T23:24:01.568Z,7.71
2018-01-01T23:26:36.414Z,7.67
2018-01-01T23:29:11.346Z,7.63
2018-01-01T23:31:46.338Z,7.61
2018-01-01T23:34:20.995Z,7.58
2018-01-01T23:36:55.895Z,7.58
2018-01-01T23:39:30.669Z,7.54
2018-01-01T23:42:05.331Z,7.51
2018-01-01T23:44:40.514Z,7.46
2018-01-01T23:47:15.374Z,7.47
2018-01-01T23:49:49.976Z,7.47
2018-01-01T23:52:25.178Z,7.44
2018-01-01T23:54:59.950Z,7.42
2018-01-01T23:57:34.662Z,7.39
